createdAt,value
2016-08-23T00:00:47.693Z,60.63
2016-08-23T00:01:59.963Z,60.72
2016-08-23T00:03:12.243Z,60.82
2016-08-23T00:04:24.521Z,60.53
2016-08-23T00:05:36.779Z,60.69
2016-08-23T00:06:48.326Z,60.53
2016-08-23T00:07:59.898Z,60.43
2016-08-23T00:09:12.175Z,60.34
2016-08-23T00:10:23.731Z,60.14
2016-08-23T00:11:36.007Z,60.43
2016-08-23T00:12:47.597Z,60.5
2016-08-23T00:13:59.855Z,60.43
2016-08-23T00:15:12.109Z,60.21
2016-08-23T00:16:24.380Z,60.31
2016-08-23T00:17:36.647Z,60.5
2016-08-23T00:18:48.920Z,60.6
2016-08-23T00:20:01.192Z,60.31
2016-08-23T00:21:13.468Z,60.6
2016-08-23T00:22:25.722Z,60.11
2016-08-23T00:23:37.991Z,60.6
2016-08-23T00:24:49.548Z,60.5
2016-08-23T00:26:01.127Z,60.5
2016-08-23T00:27:12.706Z,60.6
2016-08-23T00:28:24.987Z,60.6
2016-08-23T00:29:37.253Z,60.5
2016-08-23T00:30:48.801Z,60.5
2016-08-23T00:32:00.348Z,60.88
2016-08-23T00:33:12.627Z,60.69
2016-08-23T00:34:23.489Z,60.6
2016-08-23T00:35:35.762Z,60.69
2016-08-23T00:36:48.037Z,60.6
2016-08-23T00:38:00.289Z,60.4
2016-08-23T00:39:11.859Z,60.4
2016-08-23T00:40:23.420Z,60.69
2016-08-23T00:41:34.972Z,60.6
2016-08-23T00:42:46.529Z,60.69
2016-08-23T00:43:58.101Z,60.6
2016-08-23T00:45:10.378Z,60.6
2016-08-23T00:46:22.641Z,60.78
2016-08-23T00:47:34.197Z,60.5
2016-08-23T00:48:46.459Z,60.6
2016-08-23T00:49:58.020Z,60.5
2016-08-23T00:51:10.283Z,60.6
2016-08-23T00:52:22.557Z,60.4
2016-08-23T00:53:34.806Z,60.6
2016-08-23T00:54:47.072Z,60.5
2016-08-23T00:55:58.631Z,60.6
2016-08-23T00:57:10.901Z,60.02
2016-08-23T00:58:22.457Z,60.6
2016-08-23T00:59:34.718Z,60.6
2016-08-23T01:00:46.989Z,60.69
2016-08-23T01:01:59.269Z,60.5
2016-08-23T01:03:10.828Z,60.69
2016-08-23T01:04:22.391Z,60.69
2016-08-23T01:05:34.653Z,60.69
2016-08-23T01:06:46.915Z,60.31
2016-08-23T01:07:59.186Z,60.5
2016-08-23T01:09:10.052Z,60.21
2016-08-23T01:10:21.612Z,59.92
2016-08-23T01:11:33.892Z,60.02
2016-08-23T01:12:46.155Z,60.78
2016-08-23T01:13:58.436Z,60.11
2016-08-23T01:15:10.693Z,60.11
2016-08-23T01:16:22.249Z,60.4
2016-08-23T01:17:34.535Z,60.31
2016-08-23T01:18:46.785Z,60.4
2016-08-23T01:19:59.043Z,60.02
2016-08-23T01:21:11.300Z,60.21
2016-08-23T01:22:23.564Z,60.38
2016-08-23T01:23:35.120Z,60.57
2016-08-23T01:24:46.686Z,60.4
2016-08-23T01:25:58.954Z,60.38
2016-08-23T01:27:10.510Z,60.08
2016-08-23T01:28:22.803Z,60.38
2016-08-23T01:29:34.355Z,59.99
2016-08-23T01:30:45.906Z,59.99
2016-08-23T01:31:58.182Z,60.38
2016-08-23T01:33:09.745Z,60.47
2016-08-23T01:34:21.986Z,60.57
2016-08-23T01:35:34.275Z,59.99
2016-08-23T01:36:46.584Z,60.66
2016-08-23T01:37:58.856Z,60.75
2016-08-23T01:39:11.109Z,60.08
2016-08-23T01:40:23.365Z,60.75
2016-08-23T01:41:35.641Z,60.18
2016-08-23T01:42:47.908Z,60.57
2016-08-23T01:44:00.177Z,60.75
2016-08-23T01:45:12.452Z,60.75
2016-08-23T01:46:24.008Z,60.66
2016-08-23T01:47:35.566Z,60.66
2016-08-23T01:48:47.127Z,60.08
2016-08-23T01:49:59.390Z,60.57
2016-08-23T01:51:10.958Z,60.38
2016-08-23T01:52:23.216Z,60.57
2016-08-23T01:53:35.479Z,60.08
2016-08-23T01:54:47.746Z,60.57
2016-08-23T01:55:59.323Z,60.57
2016-08-23T01:57:11.574Z,60.18
2016-08-23T01:58:23.831Z,60.38
2016-08-23T01:59:36.109Z,60.47
2016-08-23T02:00:48.370Z,60.75
2016-08-23T02:01:59.922Z,60.75
2016-08-23T02:03:12.176Z,60.57
2016-08-23T02:04:24.431Z,60.57
2016-08-23T02:05:35.997Z,60.38
2016-08-23T02:06:46.843Z,60.57
2016-08-23T02:07:59.105Z,60.57
2016-08-23T02:09:11.372Z,60.66
2016-08-23T02:10:23.629Z,60.66
2016-08-23T02:11:34.516Z,60.75
2016-08-23T02:12:46.768Z,59.99
2016-08-23T02:13:58.325Z,60.38
2016-08-23T02:15:10.604Z,60.66
2016-08-23T02:16:22.868Z,60.57
2016-08-23T02:17:34.419Z,59.61
2016-08-23T02:18:46.695Z,60.66
2016-08-23T02:19:58.954Z,60.66
2016-08-23T02:21:11.262Z,60.47
2016-08-23T02:22:23.532Z,60.75
2016-08-23T02:23:35.089Z,60.47
2016-08-23T02:24:47.354Z,60.75
2016-08-23T02:25:59.612Z,59.99
2016-08-23T02:27:11.865Z,59.99
2016-08-23T02:28:24.132Z,60.66
2016-08-23T02:29:35.714Z,60.38
2016-08-23T02:30:47.990Z,60.18
2016-08-23T02:32:00.255Z,60.38
2016-08-23T02:33:12.554Z,60.28
2016-08-23T02:34:24.816Z,60.38
2016-08-23T02:35:36.377Z,59.99
2016-08-23T02:36:48.661Z,60.08
2016-08-23T02:38:00.924Z,60.75
2016-08-23T02:39:13.187Z,60.47
2016-08-23T02:40:24.753Z,60.08
2016-08-23T02:41:36.329Z,60.08
2016-08-23T02:42:48.586Z,59.99
2016-08-23T02:44:00.842Z,60.08
2016-08-23T02:45:11.705Z,60.08
2016-08-23T02:46:23.965Z,60.57
2016-08-23T02:47:35.543Z,60.57
2016-08-23T02:48:47.802Z,60.38
2016-08-23T02:50:00.076Z,60.47
2016-08-23T02:51:11.644Z,60.28
2016-08-23T02:52:23.891Z,60.66
2016-08-23T02:53:36.152Z,60.38
2016-08-23T02:54:47.723Z,60.38
2016-08-23T02:55:59.983Z,60.18
2016-08-23T02:57:12.241Z,60.28
2016-08-23T02:58:24.509Z,60.28
2016-08-23T02:59:36.056Z,60.28
2016-08-23T03:00:47.617Z,60.47
2016-08-23T03:01:59.885Z,60.75
2016-08-23T03:03:12.158Z,60.75
2016-08-23T03:04:23.011Z,60.75
2016-08-23T03:05:35.272Z,60.75
2016-08-23T03:06:46.836Z,60.75
2016-08-23T03:07:59.088Z,60.75
2016-08-23T03:09:11.356Z,60.75
2016-08-23T03:10:23.628Z,60.75
2016-08-23T03:11:35.896Z,60.75
2016-08-23T03:12:47.451Z,60.75
2016-08-23T03:13:59.717Z,60.75
2016-08-23T03:15:11.282Z,60.75
2016-08-23T03:16:22.134Z,60.75
2016-08-23T03:17:34.395Z,60.57
2016-08-23T03:18:46.643Z,60.35
2016-08-23T03:19:58.901Z,60.63
2016-08-23T03:21:09.791Z,60.35
2016-08-23T03:22:22.065Z,60.25
2016-08-23T03:23:34.341Z,60.75
2016-08-23T03:24:45.885Z,60.66
2016-08-23T03:25:58.141Z,60.66
2016-08-23T03:27:09.696Z,60.75
2016-08-23T03:28:21.997Z,60.75
2016-08-23T03:29:34.256Z,60.75
2016-08-23T03:30:46.521Z,60.75
2016-08-23T03:31:58.766Z,60.72
2016-08-23T03:33:09.618Z,60.75
2016-08-23T03:34:21.874Z,60.66
2016-08-23T03:35:34.139Z,60.85
2016-08-23T03:36:46.452Z,60.38
2016-08-23T03:37:58.717Z,60.75
2016-08-23T03:39:10.981Z,60.75
2016-08-23T03:40:23.236Z,60.38
2016-08-23T03:41:34.794Z,60.57
2016-08-23T03:42:46.357Z,60.35
2016-08-23T03:43:58.606Z,60.75
2016-08-23T03:45:10.890Z,60.85
2016-08-23T03:46:23.145Z,60.66
2016-08-23T03:47:35.422Z,60.75
2016-08-23T03:48:46.979Z,60.85
2016-08-23T03:49:59.235Z,60.75
2016-08-23T03:51:11.498Z,60.66
2016-08-23T03:52:23.751Z,60.66
2016-08-23T03:53:35.302Z,60.75
2016-08-23T03:54:46.173Z,60.75
2016-08-23T03:55:57.731Z,60.66
2016-08-23T03:57:10.002Z,60.66
2016-08-23T03:58:22.269Z,60.38
2016-08-23T03:59:33.830Z,60.66
2016-08-23T04:00:46.092Z,60.35
2016-08-23T04:01:57.651Z,60.25
2016-08-23T04:03:09.205Z,60.72
2016-08-23T04:04:20.059Z,60.72
2016-08-23T04:05:32.333Z,60.72
2016-08-23T04:06:44.606Z,60.72
2016-08-23T04:07:56.869Z,60.05
2016-08-23T04:09:09.140Z,60.35
2016-08-23T04:10:20.695Z,59.86
2016-08-23T04:11:32.253Z,60.35
2016-08-23T04:12:43.824Z,60.66
2016-08-23T04:13:56.083Z,60.66
2016-08-23T04:15:08.352Z,60.38
2016-08-23T04:16:20.629Z,60.08
2016-08-23T04:17:32.886Z,60.18
2016-08-23T04:18:45.135Z,60.18
2016-08-23T04:19:55.980Z,60.28
2016-08-23T04:21:08.249Z,60.18
2016-08-23T04:22:20.503Z,60.28
2016-08-23T04:23:32.061Z,59.99
2016-08-23T04:24:44.324Z,59.64
2016-08-23T04:25:56.595Z,59.92
2016-08-23T04:27:08.150Z,59.54
2016-08-23T04:28:19.012Z,60.21
2016-08-23T04:29:31.262Z,60.11
2016-08-23T04:30:42.823Z,60.11
2016-08-23T04:31:55.077Z,59.92
2016-08-23T04:33:07.352Z,58.67
2016-08-23T04:34:19.616Z,57.58
2016-08-23T04:35:31.875Z,56.77
2016-08-23T04:36:44.180Z,56.22
2016-08-23T04:37:56.442Z,55.77
2016-08-23T04:39:08.009Z,55.57
2016-08-23T04:40:19.584Z,55.89
2016-08-23T04:41:31.131Z,55.41
2016-08-23T04:42:42.683Z,55.73
2016-08-23T04:43:54.960Z,55.27
2016-08-23T04:45:06.526Z,55.2
2016-08-23T04:46:18.796Z,55.3
2016-08-23T04:47:30.344Z,55.42
2016-08-23T04:48:42.599Z,55.13
2016-08-23T04:49:54.853Z,55.35
2016-08-23T04:51:06.402Z,54.77
2016-08-23T04:52:18.673Z,55.07
2016-08-23T04:53:30.943Z,54.99
2016-08-23T04:54:42.510Z,55.21
2016-08-23T04:55:54.769Z,55.21
2016-08-23T04:57:07.033Z,55.43
2016-08-23T04:58:19.305Z,55.24
2016-08-23T04:59:30.857Z,55.24
2016-08-23T05:00:43.123Z,55.36
2016-08-23T05:01:55.395Z,54.98
2016-08-23T05:03:07.652Z,54.98
2016-08-23T05:04:19.905Z,55.36
2016-08-23T05:05:32.171Z,55.46
2016-08-23T05:06:44.440Z,55.49
2016-08-23T05:07:55.995Z,55.3
2016-08-23T05:09:08.270Z,55.4
2016-08-23T05:10:20.540Z,55.58
2016-08-23T05:11:32.096Z,55.58
2016-08-23T05:12:44.359Z,55.49
2016-08-23T05:13:56.619Z,55.58
2016-08-23T05:15:08.889Z,55.88
2016-08-23T05:16:21.162Z,55.98
2016-08-23T05:17:33.429Z,55.68
2016-08-23T05:18:45.695Z,55.88
2016-08-23T05:19:57.963Z,55.88
2016-08-23T05:21:10.234Z,55.42
2016-08-23T05:22:22.495Z,55.42
2016-08-23T05:23:34.052Z,55.52
2016-08-23T05:24:46.320Z,55.13
2016-08-23T05:25:58.587Z,55.13
2016-08-23T05:27:10.844Z,55.32
2016-08-23T05:28:22.424Z,55.42
2016-08-23T05:29:34.711Z,55.32
2016-08-23T05:30:46.987Z,55.44
2016-08-23T05:31:59.262Z,55.26
2016-08-23T05:33:11.521Z,55.26
2016-08-23T05:34:23.789Z,55.26
2016-08-23T05:35:36.076Z,55.35
2016-08-23T05:36:48.399Z,55.35
2016-08-23T05:38:00.659Z,55.16
2016-08-23T05:39:12.945Z,55.28
2016-08-23T05:40:25.227Z,55.28
2016-08-23T05:41:37.503Z,55.47
2016-08-23T05:42:47.671Z,55.06
2016-08-23T05:43:59.928Z,56.61
2016-08-23T05:45:11.500Z,57.62
2016-08-23T05:46:23.766Z,58.75
2016-08-23T05:47:35.339Z,59.38
2016-08-23T05:48:46.900Z,59.05
2016-08-23T05:49:57.762Z,58.02
2016-08-23T05:51:10.042Z,57.37
2016-08-23T05:52:22.311Z,58.34
2016-08-23T05:53:33.875Z,58.89
2016-08-23T05:54:45.441Z,59.53
2016-08-23T05:55:57.701Z,59.51
2016-08-23T05:57:09.258Z,59.41
2016-08-23T05:58:21.537Z,59.28
2016-08-23T05:59:33.789Z,58.06
2016-08-23T06:00:46.049Z,56.9
2016-08-23T06:01:58.316Z,56.63
2016-08-23T06:03:10.569Z,57.6
2016-08-23T06:04:21.434Z,57.77
2016-08-23T06:05:33.699Z,58.15
2016-08-23T06:06:45.251Z,59
2016-08-23T06:07:56.803Z,58.42
2016-08-23T06:09:09.092Z,57.74
2016-08-23T06:10:21.351Z,57.48
2016-08-23T06:11:33.618Z,57.38
2016-08-23T06:12:44.485Z,57.87
2016-08-23T06:13:56.745Z,58.42
2016-08-23T06:15:09.004Z,58.61
2016-08-23T06:16:20.566Z,58.9
2016-08-23T06:17:32.827Z,59.09
2016-08-23T06:18:43.704Z,59.06
2016-08-23T06:19:55.260Z,58.87
2016-08-23T06:21:07.527Z,59.06
2016-08-23T06:22:19.112Z,58.97
2016-08-23T06:23:31.366Z,58.87
2016-08-23T06:24:42.932Z,59.16
2016-08-23T06:25:54.524Z,59.06
2016-08-23T06:27:06.807Z,59.16
2016-08-23T06:28:19.093Z,58.68
2016-08-23T06:29:30.650Z,58.87
2016-08-23T06:30:40.806Z,58.87
2016-08-23T06:31:53.054Z,59.06
2016-08-23T06:33:05.310Z,58.84
2016-08-23T06:34:16.866Z,59.03
2016-08-23T06:35:27.716Z,58.94
2016-08-23T06:36:39.973Z,59.03
2016-08-23T06:37:52.246Z,58.77
2016-08-23T06:39:04.509Z,58.26
2016-08-23T06:40:16.790Z,58.55
2016-08-23T06:41:29.053Z,58.39
2016-08-23T06:42:40.624Z,58.36
2016-08-23T06:43:52.180Z,58.75
2016-08-23T06:45:03.742Z,58.1
2016-08-23T06:46:16.011Z,58.19
2016-08-23T06:47:27.577Z,58.39
2016-08-23T06:48:39.850Z,58.48
2016-08-23T06:49:52.119Z,58.48
2016-08-23T06:51:03.675Z,58.39
2016-08-23T06:52:15.940Z,58.39
2016-08-23T06:53:28.201Z,58
2016-08-23T06:54:40.473Z,57.9
2016-08-23T06:55:51.330Z,57.9
2016-08-23T06:57:03.619Z,58.48
2016-08-23T06:58:15.881Z,58.42
2016-08-23T06:59:27.453Z,57.84
2016-08-23T07:00:39.727Z,58.22
2016-08-23T07:01:52.004Z,58.03
2016-08-23T07:03:03.579Z,57.93
2016-08-23T07:04:15.873Z,58.12
2016-08-23T07:05:28.156Z,57.93
2016-08-23T07:06:40.442Z,57.74
2016-08-23T07:07:52.715Z,57.57
2016-08-23T07:09:04.987Z,57.87
2016-08-23T07:10:17.245Z,57.87
2016-08-23T07:11:28.821Z,57.77
2016-08-23T07:12:41.094Z,57.87
2016-08-23T07:13:53.344Z,57.87
2016-08-23T07:15:04.900Z,57.96
2016-08-23T07:16:17.194Z,57.87
2016-08-23T07:17:28.785Z,57.87
2016-08-23T07:18:40.337Z,57.7
2016-08-23T07:19:52.613Z,57.89
2016-08-23T07:21:02.770Z,57.89
2016-08-23T07:22:14.336Z,57.79
2016-08-23T07:23:26.625Z,57.7
2016-08-23T07:24:37.482Z,57.99
2016-08-23T07:25:49.062Z,58.18
2016-08-23T07:27:01.334Z,58.18
2016-08-23T07:28:12.195Z,58.28
2016-08-23T07:29:23.782Z,58.18
2016-08-23T07:30:36.077Z,57.79
2016-08-23T07:31:48.353Z,58.18
2016-08-23T07:33:00.643Z,57.6
2016-08-23T07:34:12.910Z,58.09
2016-08-23T07:35:25.196Z,57.79
2016-08-23T07:36:37.453Z,57.99
2016-08-23T07:37:49.031Z,57.89
2016-08-23T07:38:59.906Z,57.82
2016-08-23T07:40:12.178Z,58.02
2016-08-23T07:41:24.431Z,58.02
2016-08-23T07:42:35.988Z,57.56
2016-08-23T07:43:46.845Z,57.37
2016-08-23T07:44:59.106Z,57.76
2016-08-23T07:46:11.373Z,57.86
2016-08-23T07:47:22.960Z,57.86
2016-08-23T07:48:35.236Z,57.86
2016-08-23T07:49:46.812Z,57.86
2016-08-23T07:50:59.077Z,57.95
2016-08-23T07:52:11.348Z,57.86
2016-08-23T07:53:22.910Z,57.4
2016-08-23T07:54:34.476Z,57.69
2016-08-23T07:55:46.051Z,57.69
2016-08-23T07:56:58.325Z,57.59
2016-08-23T07:58:10.589Z,57.59
2016-08-23T07:59:22.866Z,57.5
2016-08-23T08:00:33.979Z,57.69
2016-08-23T08:01:44.851Z,57.59
2016-08-23T08:02:57.108Z,57.69
2016-08-23T08:04:09.389Z,57.71
2016-08-23T08:05:20.975Z,57.81
2016-08-23T08:06:33.235Z,57.53
2016-08-23T08:07:45.506Z,57.62
2016-08-23T08:08:57.777Z,57.53
2016-08-23T08:10:10.049Z,57.91
2016-08-23T08:11:22.407Z,57.81
2016-08-23T08:12:33.275Z,57.62
2016-08-23T08:13:44.844Z,57.71
2016-08-23T08:14:57.145Z,57.53
2016-08-23T08:16:08.716Z,57.62
2016-08-23T08:17:20.996Z,57.53
2016-08-23T08:18:33.286Z,57.62
2016-08-23T08:19:45.554Z,57.65
2016-08-23T08:20:57.843Z,57.65
2016-08-23T08:22:09.478Z,57.65
2016-08-23T08:23:21.773Z,57.45
2016-08-23T08:24:34.074Z,57.55
2016-08-23T08:25:46.358Z,57.65
2016-08-23T08:26:57.919Z,57.68
2016-08-23T08:28:10.205Z,57.68
2016-08-23T08:29:21.773Z,57.58
2016-08-23T08:30:33.335Z,57.48
2016-08-23T08:31:45.630Z,57.58
2016-08-23T08:32:57.897Z,57.39
2016-08-23T08:34:09.466Z,57.78
2016-08-23T08:35:21.728Z,57.68
2016-08-23T08:36:34.005Z,57.78
2016-08-23T08:37:45.575Z,57.68
2016-08-23T08:38:57.852Z,57.58
2016-08-23T08:40:09.422Z,57.61
2016-08-23T08:41:21.720Z,57.48
2016-08-23T08:42:33.981Z,57.58
2016-08-23T08:43:45.569Z,57.61
2016-08-23T08:44:57.855Z,57.51
2016-08-23T08:46:09.408Z,57.78
2016-08-23T08:47:20.970Z,57.9
2016-08-23T08:48:32.540Z,57.61
2016-08-23T08:49:43.402Z,57.7
2016-08-23T08:50:54.965Z,57.51
2016-08-23T08:52:07.246Z,57.61
2016-08-23T08:53:18.099Z,57.61
2016-08-23T08:54:30.354Z,57.9
2016-08-23T08:55:42.612Z,57.54
2016-08-23T08:56:54.888Z,57.64
2016-08-23T08:58:07.140Z,57.51
2016-08-23T08:59:19.406Z,57.44
2016-08-23T09:00:30.974Z,57.44
2016-08-23T09:01:42.530Z,57.93
2016-08-23T09:02:54.807Z,57.15
2016-08-23T09:04:06.365Z,57.34
2016-08-23T09:05:18.639Z,57.44
2016-08-23T09:06:30.939Z,57.93
2016-08-23T09:07:43.225Z,57.54
2016-08-23T09:08:54.789Z,57.06
2016-08-23T09:10:07.082Z,57.64
2016-08-23T09:11:19.349Z,57.25
2016-08-23T09:12:31.621Z,57.06
2016-08-23T09:13:43.906Z,57.06
2016-08-23T09:14:55.470Z,56.76
2016-08-23T09:16:07.032Z,56.89
2016-08-23T09:17:19.298Z,56.98
2016-08-23T09:18:31.571Z,57.08
2016-08-23T09:19:43.856Z,56.98
2016-08-23T09:20:56.120Z,57.08
2016-08-23T09:22:08.406Z,57.18
2016-08-23T09:23:19.967Z,57.11
2016-08-23T09:24:31.524Z,57.21
2016-08-23T09:25:43.095Z,57.21
2016-08-23T09:26:55.356Z,57.11
2016-08-23T09:28:07.629Z,56.92
2016-08-23T09:29:19.890Z,56.92
2016-08-23T09:30:32.164Z,56.92
2016-08-23T09:31:44.431Z,56.82
2016-08-23T09:32:56.727Z,56.98
2016-08-23T09:34:08.997Z,56.79
2016-08-23T09:35:20.581Z,56.72
2016-08-23T09:36:32.145Z,56.72
2016-08-23T09:37:44.437Z,57.21
2016-08-23T09:38:56.754Z,57.21
2016-08-23T09:40:09.240Z,57.31
2016-08-23T09:41:21.525Z,57.01
2016-08-23T09:42:33.856Z,56.85
2016-08-23T09:43:45.425Z,56.65
2016-08-23T09:44:57.705Z,56.95
2016-08-23T09:46:09.988Z,56.95
2016-08-23T09:47:21.559Z,56.65
2016-08-23T09:48:33.864Z,56.95
2016-08-23T09:49:46.150Z,56.95
2016-08-23T09:50:58.413Z,56.95
2016-08-23T09:52:10.684Z,56.65
2016-08-23T09:53:22.973Z,56.65
2016-08-23T09:54:35.243Z,56.75
2016-08-23T09:55:47.511Z,57.04
2016-08-23T09:56:59.087Z,56.49
2016-08-23T09:58:11.363Z,56.68
2016-08-23T09:59:23.634Z,56.49
2016-08-23T10:00:36.189Z,57.17
2016-08-23T10:01:48.479Z,56.77
2016-08-23T10:03:00.057Z,56.68
2016-08-23T10:04:12.344Z,57.17
2016-08-23T10:05:24.616Z,56.49
2016-08-23T10:06:36.888Z,57.26
2016-08-23T10:07:49.195Z,57
2016-08-23T10:09:01.460Z,56.9
2016-08-23T10:10:13.729Z,56.61
2016-08-23T10:11:26.009Z,56.32
2016-08-23T10:12:38.298Z,56.81
2016-08-23T10:13:49.863Z,56.25
2016-08-23T10:15:02.161Z,56.45
2016-08-23T10:16:14.477Z,56.35
2016-08-23T10:17:26.758Z,56.15
2016-08-23T10:18:39.045Z,56.54
2016-08-23T10:19:51.323Z,56.37
2016-08-23T10:21:03.604Z,56.35
2016-08-23T10:22:15.158Z,56.35
2016-08-23T10:23:27.450Z,56.45
2016-08-23T10:24:39.738Z,56.35
2016-08-23T10:25:52.016Z,55.99
2016-08-23T10:27:04.295Z,56.09
2016-08-23T10:28:16.574Z,55.69
2016-08-23T10:29:28.146Z,55.69
2016-08-23T10:30:39.727Z,55.72
2016-08-23T10:31:51.996Z,55.62
2016-08-23T10:33:03.571Z,55.72
2016-08-23T10:34:15.843Z,55.33
2016-08-23T10:35:28.129Z,55.75
2016-08-23T10:36:39.686Z,55.85
2016-08-23T10:37:51.999Z,56.11
2016-08-23T10:39:02.872Z,57.28
2016-08-23T10:40:14.459Z,56.47
2016-08-23T10:41:26.720Z,56.76
2016-08-23T10:42:39.007Z,56.89
2016-08-23T10:43:51.297Z,56.76
2016-08-23T10:45:03.564Z,56.4
2016-08-23T10:46:15.826Z,55.62
2016-08-23T10:47:27.387Z,55.55
2016-08-23T10:48:38.954Z,55.75
2016-08-23T10:49:50.523Z,56.04
2016-08-23T10:51:02.793Z,56.21
2016-08-23T10:52:15.064Z,55.94
2016-08-23T10:53:27.351Z,55.94
2016-08-23T10:54:38.915Z,55.68
2016-08-23T10:55:51.181Z,55.29
2016-08-23T10:57:03.471Z,55.87
2016-08-23T10:58:15.053Z,55.77
2016-08-23T10:59:27.338Z,56.52
2016-08-23T11:00:38.902Z,56.14
2016-08-23T11:01:51.177Z,56.72
2016-08-23T11:03:03.465Z,57.47
2016-08-23T11:04:15.738Z,56.11
2016-08-23T11:05:28.034Z,55.68
2016-08-23T11:06:40.304Z,55.38
2016-08-23T11:07:52.762Z,56.75
2016-08-23T11:09:04.334Z,56.82
2016-08-23T11:10:16.607Z,56.11
2016-08-23T11:11:28.882Z,55.85
2016-08-23T11:12:40.441Z,56.23
2016-08-23T11:13:52.717Z,55.75
2016-08-23T11:15:05.037Z,55.75
2016-08-23T11:16:17.302Z,55.32
2016-08-23T11:17:29.571Z,54.83
2016-08-23T11:18:41.864Z,54.75
2016-08-23T11:19:54.140Z,54.59
2016-08-23T11:21:05.012Z,54.49
2016-08-23T11:22:16.591Z,54.59
2016-08-23T11:23:28.861Z,54.22
2016-08-23T11:24:41.142Z,53.96
2016-08-23T11:25:53.437Z,54.25
2016-08-23T11:27:05.744Z,54.93
2016-08-23T11:28:18.030Z,55
2016-08-23T11:29:30.286Z,55.88
2016-08-23T11:30:42.568Z,54.49
2016-08-23T11:31:54.139Z,54.64
2016-08-23T11:33:05.716Z,56.01
2016-08-23T11:34:17.308Z,56.67
2016-08-23T11:35:29.578Z,56.93
2016-08-23T11:36:41.147Z,56.68
2016-08-23T11:37:53.478Z,55.86
2016-08-23T11:39:05.766Z,55.3
2016-08-23T11:40:18.041Z,54.71
2016-08-23T11:41:30.333Z,54.81
2016-08-23T11:42:42.621Z,54.74
2016-08-23T11:43:53.497Z,55.98
2016-08-23T11:45:05.787Z,55.08
2016-08-23T11:46:18.100Z,54.81
2016-08-23T11:47:30.408Z,54.74
2016-08-23T11:48:42.685Z,54.54
2016-08-23T11:49:54.252Z,54.54
2016-08-23T11:51:05.838Z,55.13
2016-08-23T11:52:18.115Z,55.42
2016-08-23T11:53:30.383Z,55.91
2016-08-23T11:54:42.654Z,55.81
2016-08-23T11:55:54.932Z,55.69
2016-08-23T11:57:07.232Z,56.08
2016-08-23T11:58:19.516Z,57.52
2016-08-23T11:59:31.820Z,57.39
2016-08-23T12:00:44.099Z,56.77
2016-08-23T12:01:56.366Z,57.46
2016-08-23T12:03:07.937Z,58.14
2016-08-23T12:04:20.225Z,58.7
2016-08-23T12:05:32.530Z,57.89
2016-08-23T12:06:44.806Z,57.5
2016-08-23T12:07:56.379Z,56.85
2016-08-23T12:09:08.661Z,56
2016-08-23T12:10:20.930Z,57.07
2016-08-23T12:11:33.219Z,56.48
2016-08-23T12:12:45.498Z,56.02
2016-08-23T12:13:57.777Z,56.61
2016-08-23T12:15:09.348Z,56.41
2016-08-23T12:16:21.625Z,55.83
2016-08-23T12:17:33.901Z,55.96
2016-08-23T12:18:45.476Z,56.35
2016-08-23T12:19:57.051Z,57.49
2016-08-23T12:21:09.341Z,56.75
2016-08-23T12:22:21.619Z,57.17
2016-08-23T12:23:33.885Z,57.17
2016-08-23T12:24:45.472Z,56.48
2016-08-23T12:25:57.760Z,57.56
2016-08-23T12:27:08.636Z,57.17
2016-08-23T12:28:19.537Z,57.85
2016-08-23T12:29:30.420Z,58.48
2016-08-23T12:30:41.990Z,57.5
2016-08-23T12:31:54.270Z,57.14
2016-08-23T12:33:06.550Z,56.48
2016-08-23T12:34:18.133Z,55.63
2016-08-23T12:35:28.314Z,55.86
2016-08-23T12:36:40.595Z,54.88
2016-08-23T12:37:52.173Z,54.44
2016-08-23T12:39:03.794Z,54.93
2016-08-23T12:40:15.372Z,55.81
2016-08-23T12:41:26.960Z,56.3
2016-08-23T12:42:39.237Z,56.54
2016-08-23T12:43:51.533Z,57.23
2016-08-23T12:45:03.800Z,56.51
2016-08-23T12:46:15.355Z,57.52
2016-08-23T12:47:26.918Z,58.37
2016-08-23T12:48:37.801Z,56.58
2016-08-23T12:49:49.380Z,56.02
2016-08-23T12:51:00.944Z,56.35
2016-08-23T12:52:13.201Z,56.54
2016-08-23T12:53:24.776Z,57.23
2016-08-23T12:54:35.639Z,57.39
2016-08-23T12:55:47.229Z,57.1
2016-08-23T12:56:59.507Z,57.46
2016-08-23T12:58:11.087Z,57.36
2016-08-23T12:59:23.349Z,56.61
2016-08-23T13:00:34.921Z,56.05
2016-08-23T13:01:47.217Z,56.15
2016-08-23T13:02:59.489Z,56.25
2016-08-23T13:04:11.067Z,57.42
2016-08-23T13:05:23.356Z,57.29
2016-08-23T13:06:34.930Z,58.83
2016-08-23T13:07:46.502Z,58.6
2016-08-23T13:08:58.794Z,58.02
2016-08-23T13:10:11.066Z,57.34
2016-08-23T13:11:21.937Z,56.38
2016-08-23T13:12:34.220Z,56.71
2016-08-23T13:13:46.490Z,57.56
2016-08-23T13:14:58.059Z,56.68
2016-08-23T13:16:09.619Z,56.9
2016-08-23T13:17:20.499Z,57.03
2016-08-23T13:18:32.089Z,57.29
2016-08-23T13:19:43.679Z,57.36
2016-08-23T13:20:54.549Z,57.26
2016-08-23T13:22:05.448Z,57.46
2016-08-23T13:23:17.028Z,56.61
2016-08-23T13:24:27.201Z,56.41
2016-08-23T13:25:38.068Z,56.54
2016-08-23T13:26:48.940Z,56.05
2016-08-23T13:28:01.215Z,56.35
2016-08-23T13:29:13.499Z,55.96
2016-08-23T13:30:25.770Z,55.98
2016-08-23T13:31:38.041Z,56.08
2016-08-23T13:32:49.632Z,56.27
2016-08-23T13:34:01.241Z,55.98
2016-08-23T13:35:13.560Z,56.01
2016-08-23T13:36:25.827Z,55.62
2016-08-23T13:37:38.103Z,56.1
2016-08-23T13:38:48.262Z,55.52
2016-08-23T13:40:00.541Z,55.91
2016-08-23T13:41:12.817Z,55.91
2016-08-23T13:42:23.011Z,56.01
2016-08-23T13:43:35.285Z,55.91
2016-08-23T13:44:46.846Z,56.4
2016-08-23T13:45:58.424Z,56.4
2016-08-23T13:47:10.717Z,56.3
2016-08-23T13:48:23.020Z,56.33
2016-08-23T13:49:33.891Z,55.94
2016-08-23T13:50:45.489Z,56.04
2016-08-23T13:51:56.368Z,56.13
2016-08-23T13:53:07.959Z,56.16
2016-08-23T13:54:19.615Z,55.96
2016-08-23T13:55:31.199Z,55.87
2016-08-23T13:56:43.474Z,55.87
2016-08-23T13:57:53.651Z,56.06
2016-08-23T13:59:05.943Z,56.36
2016-08-23T14:00:18.233Z,56.16
2016-08-23T14:01:28.416Z,56.75
2016-08-23T14:02:39.293Z,56.52
2016-08-23T14:03:50.886Z,56.52
2016-08-23T14:05:02.451Z,56.62
2016-08-23T14:06:14.738Z,56.82
2016-08-23T14:07:26.308Z,57.48
2016-08-23T14:08:37.877Z,57.45
2016-08-23T14:09:49.450Z,56.86
2016-08-23T14:11:01.030Z,56.79
2016-08-23T14:12:11.910Z,56.5
2016-08-23T14:13:24.207Z,56.6
2016-08-23T14:14:36.483Z,56.1
2016-08-23T14:15:48.782Z,56.72
2016-08-23T14:17:00.358Z,56.43
2016-08-23T14:18:11.227Z,56.62
2016-08-23T14:19:22.108Z,56.23
2016-08-23T14:20:33.734Z,56.52
2016-08-23T18:14:15.185Z,60.42
2016-08-23T18:15:27.460Z,60.42
2016-08-23T18:16:39.776Z,60.42
2016-08-23T18:17:53.032Z,60.49
2016-08-23T18:19:04.641Z,60.2
2016-08-23T18:20:15.537Z,60.2
2016-08-23T18:21:27.831Z,60.2
2016-08-23T18:22:39.397Z,60.39
2016-08-23T18:23:51.909Z,60.39
2016-08-23T18:25:05.304Z,60.58
2016-08-23T18:26:16.878Z,60.39
2016-08-23T18:27:28.469Z,60.49
2016-08-23T18:28:40.050Z,60.39
2016-08-23T18:29:51.632Z,60.2
2016-08-23T18:31:02.510Z,60.68
2016-08-23T18:32:14.806Z,60.49
2016-08-23T18:33:27.089Z,60.68
2016-08-23T18:34:38.673Z,60.36
2016-08-23T18:35:50.993Z,60.68
2016-08-23T18:37:02.592Z,60.17
2016-08-23T18:38:12.763Z,60.07
2016-08-23T18:39:25.092Z,60.17
2016-08-23T18:40:37.385Z,60.17
2016-08-23T18:41:48.967Z,60.36
2016-08-23T18:42:59.848Z,60.55
2016-08-23T18:44:12.139Z,60.46
2016-08-23T18:45:23.740Z,60.55
2016-08-23T18:46:34.648Z,60.36
2016-08-23T18:47:44.853Z,60.52
2016-08-23T18:48:57.136Z,60.52
2016-08-23T18:50:09.481Z,60.33
2016-08-23T18:51:21.767Z,60.27
2016-08-23T18:52:34.116Z,60.43
2016-08-23T18:53:45.768Z,60.33
2016-08-23T18:54:58.098Z,60.43
2016-08-23T18:56:09.714Z,60.33
2016-08-23T18:57:22.071Z,60.52
2016-08-23T18:58:34.459Z,60.24
2016-08-23T18:59:47.212Z,59.75
2016-08-23T19:01:03.230Z,59.75
2016-08-23T19:02:18.778Z,59.75
2016-08-23T19:03:30.043Z,59.94
2016-08-23T19:04:41.698Z,60.04
2016-08-23T19:05:54.367Z,60.04
2016-08-23T19:07:06.022Z,59.66
2016-08-23T19:08:18.438Z,60.43
2016-08-23T19:09:30.123Z,60.14
2016-08-23T19:10:41.995Z,60.33
2016-08-23T19:11:53.478Z,60.43
2016-08-23T19:13:05.820Z,60.33
2016-08-23T19:14:18.667Z,60.43
2016-08-23T19:15:32.173Z,60.62
2016-08-23T19:16:44.563Z,60.33
2016-08-23T19:17:56.836Z,60.33
2016-08-23T19:19:10.422Z,60.62
2016-08-23T19:20:22.059Z,60.14
2016-08-23T19:21:34.691Z,60.14
2016-08-23T19:22:46.593Z,60.33